Toba Leah II — WDF5117 — position and weather

sailwx.info

Track history (hours):
 
Tides and Currents Weather Stations Pressure Air Temp Water Temp Dewpoint Dewpoint Depression Visibility Wind Speed Wind Dir Waves Ship Positions

Toba Leah II

Owner: JEW CORP OF GREENWOOD, BLUFFTON, SC. More information available from US FCC via Universal Licensing System.

Last reported at 2018-Jan-07 00:30 UTC. Time now 2018-Jan-21 20:32 UTC.
Position N 37°55' W 122°21'.
Warning: this ship's position is 14 days out of date.

Length 13 m.

Type: Sailing vessel. MMSI: 367543490.

Date/timePositionNaut miles runAvg speedWind from/ knotsBaromVisibWave heightAir tempDewpointWater temp
2018-Jan-07 00:30N 37°55' W 122°21'0 0.7
2018-Jan-07 00:00N 37°55' W 122°21'3 5.0
2018-Jan-06 23:30N 37°54' W 122°24'1 2.9
2018-Jan-06 23:00N 37°53' W 122°26'2 2.9
2018-Jan-06 22:27N 37°52' W 122°27'1 2.1
2018-Jan-06 21:59N 37°52' W 122°26'0 0.0
2018-Jan-06 21:29N 37°52' W 122°26'0 0.0
2018-Jan-06 20:54N 37°52' W 122°26'1 1.6
2018-Jan-06 20:06N 37°51' W 122°27'0 1.4
2018-Jan-06 20:00N 37°51' W 122°27'1 2.5
2018-Jan-06 19:30N 37°52' W 122°27'3 6.2
2018-Jan-06 19:00N 37°54' W 122°24'2 4.9
2018-Jan-06 18:30N 37°55' W 122°21'  
Track history (hours):
 
Tides and Currents Weather Stations Pressure Air Temp Water Temp Dewpoint Dewpoint Depression Visibility Wind Speed Wind Dir Waves Ship Positions

Toba Leah II

Owner: JEW CORP OF GREENWOOD, BLUFFTON, SC. More information available from US FCC via Universal Licensing System.

Last reported at 2018-Jan-07 00:30 UTC. Time now 2018-Jan-21 20:32 UTC.
Position N 37°55' W 122°21'.
Warning: this ship's position is 14 days out of date.

Length 13 m.

Type: Sailing vessel. MMSI: 367543490.

Date/timePositionNaut miles runAvg speedWind from/ knotsBaromVisibWave heightAir tempDewpointWater temp
2018-Jan-07 00:30N 37°55' W 122°21'0 0.7
2018-Jan-07 00:00N 37°55' W 122°21'3 5.0
2018-Jan-06 23:30N 37°54' W 122°24'1 2.9
2018-Jan-06 23:00N 37°53' W 122°26'2 2.9
2018-Jan-06 22:27N 37°52' W 122°27'1 2.1
2018-Jan-06 21:59N 37°52' W 122°26'0 0.0
2018-Jan-06 21:29N 37°52' W 122°26'0 0.0
2018-Jan-06 20:54N 37°52' W 122°26'1 1.6
2018-Jan-06 20:06N 37°51' W 122°27'0 1.4
2018-Jan-06 20:00N 37°51' W 122°27'1 2.5
2018-Jan-06 19:30N 37°52' W 122°27'3 6.2
2018-Jan-06 19:00N 37°54' W 122°24'2 4.9
2018-Jan-06 18:30N 37°55' W 122°21'  

Dump ship's entire track history